Time;durP1;ratioP1;P1;durP2;ratioP2;P2;SDS_P1;SDS_P2;PMS_P1;PMS_P2;Temp;Humidity;BMP_temperature;BMP_pressure;BME280_temperature;BME280_humidity;BME280_pressure;Samples;Min_cycle;Max_cycle;Signal;HPM_P1;HPM_P2
2021/04/09 00:01:28;;;;;;;6.20;4.85;;;;;;;2.47;77.17;100653.78;634508;220;32781;-76
2021/04/09 00:03:57;;;;;;;7.60;6.13;;;;;;;2.01;78.11;100645.97;645646;221;23678;-76
2021/04/09 00:06:25;;;;;;;7.60;4.77;;;;;;;1.69;79.30;100649.73;641927;221;24797;-76
2021/04/09 00:08:53;;;;;;;7.90;4.47;;;;;;;1.86;78.38;100648.05;647378;219;24874;-76
2021/04/09 00:11:21;;;;;;;6.80;5.10;;;;;;;1.51;78.96;100646.80;644004;219;24801;-76
2021/04/09 00:13:49;;;;;;;5.73;5.13;;;;;;;1.11;79.33;100653.87;645708;221;26966;-76
2021/04/09 00:16:16;;;;;;;7.97;5.50;;;;;;;1.20;80.72;100657.73;642809;220;25099;-76
2021/04/09 00:18:44;;;;;;;9.63;5.67;;;;;;;1.83;79.14;100657.16;640994;220;32781;-76
2021/04/09 00:21:12;;;;;;;8.67;6.57;;;;;;;1.27;80.81;100658.25;648164;219;23704;-76
2021/04/09 00:23:40;;;;;;;10.00;5.90;;;;;;;1.53;81.13;100659.08;639988;221;24792;-76
2021/04/09 00:26:08;;;;;;;8.10;5.50;;;;;;;1.74;80.86;100655.45;642551;222;24785;-76
2021/04/09 00:28:36;;;;;;;6.50;5.20;;;;;;;1.85;80.00;100648.95;643860;221;25069;-76
2021/04/09 00:31:04;;;;;;;8.60;5.60;;;;;;;2.22;78.74;100633.28;641247;220;32656;-76
2021/04/09 00:33:32;;;;;;;9.85;5.78;;;;;;;2.37;77.87;100629.06;638484;221;43511;-76
2021/04/09 00:36:00;;;;;;;9.10;5.43;;;;;;;2.01;78.80;100618.58;642645;221;23708;-76
2021/04/09 00:38:28;;;;;;;8.33;5.00;;;;;;;2.04;78.88;100627.84;643541;221;24786;-76
2021/04/09 00:40:56;;;;;;;5.20;4.13;;;;;;;1.92;78.68;100617.77;639877;220;24834;-76
2021/04/09 00:43:24;;;;;;;7.90;4.73;;;;;;;1.70;78.99;100621.91;639579;222;24778;-76
2021/04/09 00:45:52;;;;;;;8.83;5.10;;;;;;;1.62;79.54;100616.79;638676;221;24862;-76
2021/04/09 00:48:20;;;;;;;7.33;5.10;;;;;;;1.77;79.83;100636.06;642696;221;24791;-76
2021/04/09 00:50:48;;;;;;;11.35;5.22;;;;;;;2.12;78.58;100630.84;638867;220;32668;-76
2021/04/09 00:53:15;;;;;;;10.93;5.40;;;;;;;1.58;79.68;100625.09;640297;223;23684;-76
2021/04/09 00:55:43;;;;;;;6.87;4.93;;;;;;;1.41;79.75;100620.83;639467;221;25023;-76
2021/04/09 00:58:11;;;;;;;6.93;5.30;;;;;;;1.24;80.37;100622.09;643113;221;24866;-76
2021/04/09 01:00:39;;;;;;;11.13;5.27;;;;;;;1.39;80.70;100623.06;641162;220;24791;-76
2021/04/09 01:03:07;;;;;;;7.37;5.00;;;;;;;1.26;81.77;100629.70;643905;221;24795;-76
2021/04/09 01:05:35;;;;;;;6.27;4.70;;;;;;;1.17;80.55;100627.98;642756;221;25081;-76
2021/04/09 01:08:03;;;;;;;8.20;5.80;;;;;;;1.83;79.95;100621.25;633064;221;32648;-76
2021/04/09 01:10:32;;;;;;;7.23;4.57;;;;;;;1.42;81.12;100620.37;645329;219;23670;-76
2021/04/09 01:12:59;;;;;;;6.40;4.87;;;;;;;1.32;81.44;100626.85;641965;221;24788;-76
2021/04/09 01:15:27;;;;;;;6.67;4.57;;;;;;;1.41;81.29;100625.95;643534;221;24801;-76
2021/04/09 01:17:58;;;;;;;8.03;5.20;;;;;;;1.37;81.58;100618.47;643470;221;24793;-76
2021/04/09 01:20:47;;;;;;;5.27;4.77;;;;;;;1.41;81.59;100618.72;640936;220;24802;-76
2021/04/09 01:23:23;;;;;;;11.00;5.37;;;;;;;1.29;81.64;100616.31;641579;221;27292;-76
2021/04/09 01:26:03;;;;;;;6.13;4.63;;;;;;;0.96;81.27;100602.13;643584;220;24805;-77
2021/04/09 01:28:31;;;;;;;11.03;4.80;;;;;;;0.91;81.29;100614.33;641295;220;24798;-76
2021/04/09 01:31:15;;;;;;;8.80;5.40;;;;;;;1.48;80.21;100609.34;633127;220;32749;-76
2021/04/09 01:33:43;;;;;;;6.50;5.37;;;;;;;1.15;81.57;100599.52;639030;221;23699;-76
2021/04/09 01:36:12;;;;;;;8.63;5.07;;;;;;;1.07;80.99;100601.61;640401;221;24792;-76
2021/04/09 01:38:41;;;;;;;7.80;5.10;;;;;;;1.08;81.50;100604.55;643779;221;24807;-76
2021/04/09 01:41:09;;;;;;;7.67;4.80;;;;;;;0.84;80.73;100596.31;638288;221;24806;-76
2021/04/09 01:43:36;;;;;;;6.23;4.90;;;;;;;0.80;81.31;100597.38;639847;221;24868;-76
2021/04/09 01:46:05;;;;;;;8.53;5.00;;;;;;;0.87;81.55;100598.75;643586;221;24806;-76
2021/04/09 01:48:33;;;;;;;8.90;4.77;;;;;;;0.74;80.80;100598.96;639997;221;24826;-76
2021/04/09 01:51:01;;;;;;;6.75;4.62;;;;;;;1.32;80.44;100585.86;634073;221;33101;-76
2021/04/09 01:53:29;;;;;;;7.73;5.20;;;;;;;0.85;81.00;100581.36;647500;221;23735;-76
2021/04/09 01:55:58;;;;;;;5.17;4.37;;;;;;;0.65;81.14;100582.75;645526;221;24785;-76
2021/04/09 01:58:26;;;;;;;6.25;4.78;;;;;;;1.00;80.42;100574.20;637650;221;32706;-76
2021/04/09 02:00:54;;;;;;;7.37;4.80;;;;;;;0.63;80.51;100576.88;641250;221;23747;-76
2021/04/09 02:03:22;;;;;;;8.10;4.30;;;;;;;0.58;81.37;100571.54;645860;221;25024;-76
2021/04/09 02:05:50;;;;;;;8.27;5.37;;;;;;;0.58;81.71;100568.16;638434;221;25985;-76
2021/04/09 02:08:18;;;;;;;8.27;5.07;;;;;;;0.76;81.47;100565.98;642001;222;25830;-76
2021/04/09 02:10:46;;;;;;;5.57;4.20;;;;;;;0.64;81.46;100574.70;646464;220;24883;-76
2021/04/09 02:13:14;;;;;;;7.37;4.97;;;;;;;0.41;81.70;100574.04;644146;222;24797;-76
2021/04/09 02:15:42;;;;;;;6.53;5.00;;;;;;;0.34;82.21;100572.69;641320;222;24793;-76
2021/04/09 02:18:10;;;;;;;5.40;4.13;;;;;;;0.22;82.16;100575.35;645312;221;24858;-76
2021/04/09 02:20:38;;;;;;;7.93;4.03;;;;;;;0.22;82.63;100578.36;642275;220;24796;-76
2021/04/09 02:23:06;;;;;;;6.10;4.70;;;;;;;0.28;82.97;100587.02;639147;221;24802;-76
2021/04/09 02:25:34;;;;;;;8.90;5.50;;;;;;;0.18;83.05;100578.96;642186;221;24803;-76
2021/04/09 02:28:02;;;;;;;10.40;6.37;;;;;;;0.22;83.03;100586.86;637830;222;25842;-76
2021/04/09 02:30:30;;;;;;;9.30;6.27;;;;;;;0.34;83.91;100588.48;638730;221;24791;-76
2021/04/09 02:32:58;;;;;;;10.70;6.13;;;;;;;0.14;84.03;100589.37;639532;220;24795;-75
2021/04/09 02:35:25;;;;;;;13.80;6.70;;;;;;;0.26;83.23;100578.59;643437;220;24816;-76
2021/04/09 02:37:53;;;;;;;6.90;6.03;;;;;;;0.32;83.19;100570.66;640836;221;26229;-76
2021/04/09 02:40:22;;;;;;;10.10;6.35;;;;;;;0.95;81.29;100581.27;633072;221;32981;-76
2021/04/09 02:42:49;;;;;;;8.60;5.77;;;;;;;0.33;82.40;100573.59;638482;222;23673;-76
2021/04/09 02:45:17;;;;;;;10.53;6.40;;;;;;;0.22;82.93;100574.53;641608;220;25039;-76
2021/04/09 02:47:46;;;;;;;8.15;5.42;;;;;;;0.63;83.05;100576.88;634858;220;33232;-76
2021/04/09 02:50:14;;;;;;;12.20;5.30;;;;;;;0.26;83.21;100581.15;645494;220;23669;-76
2021/04/09 02:52:45;;;;;;;8.15;5.60;;;;;;;0.73;82.33;100580.67;633930;221;33056;-76
2021/04/09 02:55:14;;;;;;;7.00;5.53;;;;;;;0.96;81.62;100571.41;636796;221;43377;-77
2021/04/09 02:57:42;;;;;;;8.77;6.17;;;;;;;0.28;82.18;100558.88;645483;221;23680;-76
2021/04/09 03:00:11;;;;;;;7.20;5.53;;;;;;;0.71;80.57;100550.48;633825;222;32731;-76
2021/04/09 03:02:39;;;;;;;7.33;5.20;;;;;;;0.83;80.06;100547.30;638226;221;32961;-76
2021/04/09 03:05:07;;;;;;;7.00;5.50;;;;;;;-0.16;82.26;100554.52;641804;221;23693;-76
2021/04/09 03:07:38;;;;;;;8.10;5.62;;;;;;;0.05;83.29;100561.23;638745;221;32724;-76
2021/04/09 03:10:07;;;;;;;7.30;4.80;;;;;;;-0.32;84.07;100574.82;642229;221;23687;-76
2021/04/09 03:12:35;;;;;;;7.33;5.50;;;;;;;0.26;83.38;100569.19;634120;221;32686;-76
2021/04/09 03:15:04;;;;;;;8.60;5.73;;;;;;;-0.12;84.08;100567.12;638811;222;23675;-76
2021/04/09 03:17:33;;;;;;;7.55;4.97;;;;;;;0.65;82.12;100561.00;642281;221;32704;-76
2021/04/09 03:20:01;;;;;;;10.00;6.37;;;;;;;0.13;81.86;100545.08;637962;222;23678;-76
2021/04/09 03:22:29;;;;;;;9.20;5.55;;;;;;;0.44;81.77;100544.95;632439;221;32754;-76
2021/04/09 03:24:57;;;;;;;7.17;5.47;;;;;;;0.07;82.66;100544.09;642062;221;24755;-76
2021/04/09 03:27:25;;;;;;;7.28;5.03;;;;;;;0.35;81.75;100543.64;633852;221;32684;-76
2021/04/09 03:29:53;;;;;;;10.43;6.33;;;;;;;-0.08;82.73;100534.58;641149;220;23707;-76
2021/04/09 03:32:22;;;;;;;10.40;5.20;;;;;;;0.31;82.35;100543.42;635773;221;32675;-76
2021/04/09 03:34:49;;;;;;;7.57;5.80;;;;;;;-0.12;83.33;100542.84;641965;221;23687;-76
2021/04/09 03:37:17;;;;;;;6.97;5.40;;;;;;;0.42;82.37;100533.48;639112;221;32748;-76
2021/04/09 03:39:46;;;;;;;8.23;5.50;;;;;;;0.01;81.72;100530.78;645678;220;23843;-76
2021/04/09 03:42:14;;;;;;;7.80;4.90;;;;;;;0.48;81.17;100522.98;633219;220;32661;-76
2021/04/09 03:44:42;;;;;;;8.30;5.40;;;;;;;-0.13;82.05;100522.47;639550;220;23689;-76
2021/04/09 03:47:09;;;;;;;7.20;5.37;;;;;;;0.39;81.38;100532.81;634841;220;32758;-76
2021/04/09 03:49:37;;;;;;;5.17;4.67;;;;;;;-0.09;82.23;100527.80;640814;219;23677;-75
2021/04/09 03:52:06;;;;;;;7.37;5.58;;;;;;;0.47;82.15;100527.72;635231;221;32600;-76
2021/04/09 03:54:34;;;;;;;9.60;5.90;;;;;;;-0.03;82.95;100527.06;639101;220;25851;-75
2021/04/09 03:57:02;;;;;;;7.75;5.00;;;;;;;0.44;81.63;100523.20;637334;221;32728;-76
2021/04/09 03:59:30;;;;;;;5.92;4.47;;;;;;;0.42;80.89;100521.14;632752;224;43618;-76
2021/04/09 04:01:59;;;;;;;7.30;4.73;;;;;;;-0.36;82.77;100532.42;644851;221;25789;-76
2021/04/09 04:04:27;;;;;;;7.47;5.05;;;;;;;0.19;82.50;100527.37;638560;221;32844;-76
2021/04/09 04:06:56;;;;;;;8.77;5.23;;;;;;;-0.31;83.56;100536.88;636419;225;26969;-75
2021/04/09 04:09:25;;;;;;;8.08;5.33;;;;;;;0.19;82.27;100541.43;626014;225;32816;-76
2021/04/09 04:11:53;;;;;;;7.63;5.27;;;;;;;-0.23;83.92;100541.20;645284;221;23705;-75
2021/04/09 04:14:22;;;;;;;6.87;4.93;;;;;;;0.33;82.33;100542.06;626322;225;32962;-76
2021/04/09 04:16:50;;;;;;;6.80;5.47;;;;;;;-0.17;83.65;100533.25;643043;221;24798;-76
2021/04/09 04:19:17;;;;;;;6.92;5.00;;;;;;;0.30;82.25;100532.81;627368;224;43822;-76
2021/04/09 04:21:45;;;;;;;6.90;5.20;;;;;;;0.73;80.81;100528.20;639161;221;32821;-76
2021/04/09 04:24:14;;;;;;;5.87;4.60;;;;;;;0.52;80.19;100507.84;638242;222;32719;-76
2021/04/09 04:26:42;;;;;;;8.38;5.12;;;;;;;0.39;80.92;100510.61;622992;225;32820;-76
2021/04/09 04:29:10;;;;;;;6.40;5.00;;;;;;;-0.40;82.89;100514.31;644996;221;23721;-77
2021/04/09 04:31:37;;;;;;;8.40;5.70;;;;;;;-0.63;85.15;100534.45;630035;225;25070;-77
2021/04/09 04:34:05;;;;;;;7.00;5.20;;;;;;;0.08;83.56;100538.53;621630;226;32957;-76
2021/04/09 04:36:33;;;;;;;7.67;5.60;;;;;;;0.39;82.86;100524.69;629592;225;32809;-76
2021/04/09 04:39:01;;;;;;;10.30;7.00;;;;;;;-0.11;83.75;100529.61;629179;226;23961;-76
2021/04/09 04:41:29;;;;;;;8.50;5.30;;;;;;;0.23;82.75;100531.42;641187;222;43474;-76
2021/04/09 04:43:57;;;;;;;8.17;5.93;;;;;;;-0.26;83.68;100540.08;636388;222;23734;-76
2021/04/09 04:46:25;;;;;;;8.50;6.15;;;;;;;0.37;82.50;100531.61;624257;222;32697;-76
2021/04/09 04:48:53;;;;;;;7.97;5.20;;;;;;;-0.49;83.92;100528.75;627923;225;23730;-76
2021/04/09 04:51:21;;;;;;;8.20;5.75;;;;;;;-0.11;84.44;100532.98;622480;224;32816;-77
2021/04/09 04:53:48;;;;;;;9.03;5.47;;;;;;;-0.70;86.03;100538.19;641699;220;23720;-76
2021/04/09 04:56:16;;;;;;;7.08;5.40;;;;;;;-0.16;85.25;100543.85;645669;220;32755;-76
2021/04/09 04:58:44;;;;;;;6.50;5.07;;;;;;;-0.41;86.40;100548.42;632777;225;23710;-76
2021/04/09 05:01:12;;;;;;;9.83;5.65;;;;;;;0.33;84.94;100536.50;623759;224;32826;-76
2021/04/09 05:03:40;;;;;;;8.40;5.63;;;;;;;-0.07;84.93;100531.11;646948;220;23728;-77
2021/04/09 05:06:08;;;;;;;10.82;6.03;;;;;;;0.36;84.46;100526.56;636111;221;32673;-77
2021/04/09 05:08:36;;;;;;;7.93;6.20;;;;;;;-0.09;85.52;100524.80;633489;225;23722;-76
2021/04/09 05:11:04;;;;;;;11.33;6.00;;;;;;;-0.09;85.77;100529.08;632454;225;24869;-76
2021/04/09 05:13:32;;;;;;;8.58;5.70;;;;;;;0.59;83.69;100523.75;643696;221;32689;-76
2021/04/09 05:15:59;;;;;;;8.10;6.17;;;;;;;0.16;84.45;100520.67;650779;221;23718;-76
2021/04/09 05:18:27;;;;;;;8.60;5.70;;;;;;;0.32;84.30;100527.63;646286;221;25860;-76
2021/04/09 05:20:55;;;;;;;7.10;5.63;;;;;;;0.18;84.50;100525.70;650747;221;24779;-76
2021/04/09 05:23:23;;;;;;;7.07;5.13;;;;;;;0.27;84.87;100528.64;634353;224;24825;-76
2021/04/09 05:25:51;;;;;;;7.40;5.47;;;;;;;0.82;84.01;100532.84;624010;225;32866;-77
2021/04/09 05:28:19;;;;;;;9.70;6.80;;;;;;;0.70;83.64;100517.63;644218;222;23699;-76
2021/04/09 05:30:47;;;;;;;10.90;5.77;;;;;;;0.81;83.63;100519.67;640025;221;26049;-77
2021/04/09 05:33:14;;;;;;;9.80;6.00;;;;;;;1.01;82.64;100517.42;633618;225;24836;-77
2021/04/09 05:35:42;;;;;;;11.30;6.00;;;;;;;1.04;83.12;100514.25;628113;225;27009;-77
2021/04/09 05:38:10;;;;;;;9.20;6.57;;;;;;;1.10;82.93;100513.92;648098;221;24823;-76
2021/04/09 05:40:38;;;;;;;9.80;5.67;;;;;;;1.21;82.75;100504.42;643467;221;24784;-76
2021/04/09 05:43:07;;;;;;;11.30;6.00;;;;;;;1.30;82.40;100498.84;639480;221;24786;-76
2021/04/09 05:45:35;;;;;;;8.70;6.43;;;;;;;1.33;83.27;100501.69;640155;221;24842;-76
2021/04/09 05:48:07;;;;;;;8.00;5.70;;;;;;;1.41;83.68;100500.85;641564;221;24790;-76
2021/04/09 05:50:34;;;;;;;8.40;5.27;;;;;;;1.44;84.61;100499.41;641197;221;24800;-76
2021/04/09 05:53:03;;;;;;;8.43;5.93;;;;;;;1.82;84.84;100510.63;650115;221;24871;-76
2021/04/09 05:55:30;;;;;;;11.50;5.93;;;;;;;2.23;84.01;100514.34;642893;221;24802;-77
2021/04/09 05:57:58;;;;;;;11.03;6.90;;;;;;;2.28;82.32;100503.39;640255;221;24839;-77
2021/04/09 06:00:26;;;;;;;10.53;6.97;;;;;;;2.74;81.63;100496.92;639414;221;27979;-77
2021/04/09 06:02:55;;;;;;;9.80;7.13;;;;;;;2.89;81.05;100487.51;636526;225;25130;-76
2021/04/09 06:05:23;;;;;;;11.30;7.70;;;;;;;3.54;78.92;100478.91;625184;225;32929;-77
2021/04/09 06:07:50;;;;;;;11.67;7.23;;;;;;;3.40;80.06;100475.06;644830;220;24787;-77
2021/04/09 06:10:18;;;;;;;10.20;6.63;;;;;;;3.57;80.66;100482.11;644994;220;26943;-77
2021/04/09 06:12:46;;;;;;;11.27;6.70;;;;;;;3.71;81.12;100485.58;650120;221;24804;-77
2021/04/09 06:15:14;;;;;;;10.37;6.63;;;;;;;3.93;81.41;100486.34;628773;225;24876;-76
2021/04/09 06:17:43;;;;;;;7.57;6.00;;;;;;;3.97;79.85;100487.36;635555;226;24858;-77
2021/04/09 06:20:11;;;;;;;10.70;7.12;;;;;;;4.90;77.31;100479.18;624247;225;32871;-76
2021/04/09 06:22:39;;;;;;;9.53;6.70;;;;;;;4.82;76.90;100466.00;630122;225;23743;-76
2021/04/09 06:25:08;;;;;;;8.20;6.30;;;;;;;4.85;76.70;100454.20;647001;221;24858;-77
2021/04/09 06:27:36;;;;;;;6.70;5.30;;;;;;;4.91;76.19;100457.17;642779;221;25939;-77
2021/04/09 06:30:04;;;;;;;9.60;6.13;;;;;;;5.18;76.00;100454.48;636819;224;24944;-76
2021/04/09 06:32:32;;;;;;;10.10;6.70;;;;;;;5.55;74.65;100442.93;633025;221;32713;-76
2021/04/09 06:35:00;;;;;;;10.37;7.20;;;;;;;5.50;75.00;100438.56;642905;221;24819;-76
2021/04/09 06:37:28;;;;;;;9.10;6.40;;;;;;;5.49;74.76;100440.77;635209;225;24854;-76
2021/04/09 06:39:56;;;;;;;6.70;5.80;;;;;;;5.53;74.78;100435.77;639998;222;26068;-76
2021/04/09 06:42:24;;;;;;;9.37;7.20;;;;;;;5.64;74.26;100431.98;641824;222;24817;-77
2021/04/09 06:44:51;;;;;;;9.10;6.50;;;;;;;5.28;75.19;100438.75;640637;221;25102;-76
2021/04/09 06:47:19;;;;;;;12.33;7.80;;;;;;;5.79;73.68;100434.76;639742;220;24794;-76
2021/04/09 06:49:47;;;;;;;8.90;6.10;;;;;;;5.91;73.75;100430.48;643967;221;24810;-77
2021/04/09 06:52:15;;;;;;;12.13;6.90;;;;;;;6.05;73.05;100429.02;639137;222;24824;-76
2021/04/09 06:54:43;;;;;;;11.97;6.63;;;;;;;5.99;73.96;100422.20;639341;219;24793;-76
2021/04/09 06:57:11;;;;;;;12.83;7.50;;;;;;;6.05;73.18;100423.86;640482;222;24807;-78
2021/04/09 06:59:41;;;;;;;9.43;6.50;;;;;;;6.18;72.93;100416.05;640724;221;24854;-76
2021/04/09 07:02:12;;;;;;;8.53;6.50;;;;;;;6.13;73.00;100410.41;639481;222;24783;-77
2021/04/09 07:04:40;;;;;;;11.63;7.40;;;;;;;6.45;71.82;100411.91;645642;221;25927;-77
2021/04/09 07:07:10;;;;;;;7.73;6.10;;;;;;;6.38;72.47;100406.86;642073;221;24881;-77
2021/04/09 07:09:38;;;;;;;11.38;7.05;;;;;;;7.07;70.49;100390.38;633834;220;32678;-76
2021/04/09 07:12:07;;;;;;;12.87;7.30;;;;;;;7.14;71.78;100388.94;640203;222;23711;-76
2021/04/09 07:14:48;;;;;;;15.33;7.27;;;;;;;7.13;70.24;100380.84;640732;221;24804;-77
2021/04/09 07:17:23;;;;;;;8.83;5.90;;;;;;;7.30;71.12;100379.52;642518;220;24879;-76
2021/04/09 07:19:51;;;;;;;12.17;6.93;;;;;;;7.12;69.59;100370.14;643778;220;24804;-77
2021/04/09 07:22:28;;;;;;;14.83;6.57;;;;;;;7.42;69.05;100369.97;644704;220;24874;-76
2021/04/09 07:25:04;;;;;;;9.90;5.80;;;;;;;7.56;68.76;100368.88;644431;220;25055;-76
2021/04/09 07:27:32;;;;;;;10.73;6.87;;;;;;;7.85;67.42;100365.25;634912;224;25103;-77
2021/04/09 07:30:00;;;;;;;11.70;6.67;;;;;;;7.51;68.15;100352.44;629422;224;24848;-77
2021/04/09 07:32:30;;;;;;;9.67;6.60;;;;;;;7.00;66.38;100349.11;630663;226;24831;-76
2021/04/09 07:34:59;;;;;;;7.43;5.50;;;;;;;7.15;66.48;100351.80;648815;220;24918;-77
2021/04/09 07:37:27;;;;;;;9.90;6.10;;;;;;;7.94;66.07;100354.16;649710;221;24827;-77
2021/04/09 07:39:56;;;;;;;7.42;5.70;;;;;;;7.91;63.78;100336.30;626700;225;32818;-77
2021/04/09 07:42:30;;;;;;;7.60;5.60;;;;;;;7.40;64.91;100334.34;643517;221;23763;-76
2021/04/09 07:44:59;;;;;;;7.70;5.67;;;;;;;7.90;64.07;100334.66;643651;220;24782;-76
2021/04/09 07:47:27;;;;;;;6.77;5.20;;;;;;;8.53;62.38;100325.92;642554;221;24856;-76
2021/04/09 07:50:00;;;;;;;8.80;5.00;;;;;;;8.85;61.90;100314.58;643595;220;26960;-77
2021/04/09 07:52:33;;;;;;;7.80;5.20;;;;;;;8.87;61.79;100307.52;639823;222;25918;-77
2021/04/09 07:55:04;;;;;;;6.70;5.67;;;;;;;8.95;62.26;100305.55;640103;221;26959;-76
2021/04/09 07:57:32;;;;;;;7.78;5.15;;;;;;;9.30;59.97;100295.53;635547;222;32799;-76
2021/04/09 08:00:02;;;;;;;10.05;6.85;;;;;;;9.10;58.54;100278.27;639293;220;32708;-76
2021/04/09 08:02:38;;;;;;;8.10;5.03;;;;;;;9.01;59.88;100281.20;645346;221;23735;-78
2021/04/09 08:05:07;;;;;;;6.73;4.60;;;;;;;9.17;58.33;100271.13;645679;221;24780;-77
2021/04/09 08:07:35;;;;;;;8.23;4.80;;;;;;;9.10;57.87;100270.48;641538;221;24822;-77
2021/04/09 08:10:02;;;;;;;7.60;4.80;;;;;;;8.47;58.76;100268.61;637529;221;24792;-76
2021/04/09 08:12:30;;;;;;;6.73;4.73;;;;;;;8.77;58.87;100279.43;630013;225;24845;-77
2021/04/09 08:14:58;;;;;;;10.43;4.53;;;;;;;8.75;58.85;100271.78;640713;222;24841;-77
2021/04/09 08:17:26;;;;;;;6.23;4.87;;;;;;;9.50;58.41;100272.50;639553;221;24800;-77
2021/04/09 08:19:54;;;;;;;6.50;4.70;;;;;;;9.82;57.70;100277.87;630064;225;24885;-76
2021/04/09 08:22:22;;;;;;;5.80;4.73;;;;;;;9.77;58.02;100280.08;632484;226;24805;-77
2021/04/09 08:24:50;;;;;;;7.27;5.40;;;;;;;9.09;57.57;100272.74;650667;221;24762;-76
2021/04/09 08:27:18;;;;;;;6.87;4.17;;;;;;;9.81;58.30;100267.97;640683;221;24826;-77
2021/04/09 08:29:46;;;;;;;7.47;4.80;;;;;;;10.11;58.84;100273.92;642284;220;24759;-77
2021/04/09 08:32:14;;;;;;;8.17;4.63;;;;;;;9.76;57.98;100274.55;645189;221;26979;-76
2021/04/09 08:34:42;;;;;;;4.80;4.30;;;;;;;9.17;57.68;100268.53;628867;226;24856;-76
2021/04/09 08:37:10;;;;;;;7.43;4.60;;;;;;;9.11;58.18;100276.02;638927;224;24922;-76
2021/04/09 08:39:38;;;;;;;6.85;4.90;;;;;;;9.50;58.12;100281.59;632249;224;33117;-76
2021/04/09 08:42:07;;;;;;;7.62;4.90;;;;;;;10.02;57.73;100275.61;624805;225;32814;-77
2021/04/09 08:44:35;;;;;;;6.57;4.53;;;;;;;9.97;57.02;100265.27;630148;226;26912;-77
2021/04/09 08:47:02;;;;;;;5.57;5.00;;;;;;;9.75;57.41;100272.91;648746;220;24890;-77
2021/04/09 08:49:30;;;;;;;7.77;5.23;;;;;;;9.70;57.12;100263.39;640619;221;24794;-76
2021/04/09 08:52:00;;;;;;;9.20;4.83;;;;;;;10.00;56.59;100268.92;640381;221;24773;-74
2021/04/09 08:54:29;;;;;;;6.07;4.80;;;;;;;10.36;57.06;100260.34;643522;221;24797;-77
2021/04/09 08:56:56;;;;;;;6.93;4.60;;;;;;;10.67;56.08;100258.29;626427;225;24858;-77
2021/04/09 08:59:47;;;;;;;7.90;5.27;;;;;;;11.01;56.46;100251.20;627912;224;24828;-76
2021/04/09 09:02:14;;;;;;;6.33;4.77;;;;;;;10.79;55.73;100249.00;627296;225;24829;-74
2021/04/09 09:04:42;;;;;;;6.73;4.60;;;;;;;11.46;54.57;100239.42;644555;221;23831;-76
2021/04/09 09:07:10;;;;;;;7.50;5.13;;;;;;;11.07;54.86;100232.38;643649;221;24774;-76
2021/04/09 09:09:38;;;;;;;7.70;4.70;;;;;;;10.87;54.66;100226.98;635501;223;24849;-76
2021/04/09 09:12:06;;;;;;;5.80;5.20;;;;;;;11.12;54.14;100222.36;628191;226;25373;-76
2021/04/09 09:14:40;;;;;;;8.13;5.60;;;;;;;12.29;53.73;100220.28;624511;225;32798;-76
2021/04/09 09:17:39;;;;;;;9.70;5.45;;;;;;;12.55;52.82;100215.02;636830;222;32681;-76
2021/04/09 09:20:11;;;;;;;5.80;4.60;;;;;;;12.16;51.46;100200.34;630790;224;43559;-76
2021/04/09 09:22:45;;;;;;;6.63;4.93;;;;;;;12.58;53.52;100200.83;648997;221;24775;-76
2021/04/09 09:25:13;;;;;;;6.17;4.63;;;;;;;12.86;51.44;100196.99;650411;220;24925;-77
2021/04/09 09:27:45;;;;;;;6.90;4.47;;;;;;;12.64;49.60;100187.95;634611;224;24890;-76
2021/04/09 09:30:24;;;;;;;9.23;4.40;;;;;;;12.04;51.34;100184.62;625598;225;24824;-76
2021/04/09 09:33:13;;;;;;;5.20;4.27;;;;;;;12.56;50.41;100190.56;632290;226;24893;-77
2021/04/09 09:36:06;;;;;;;5.90;4.10;;;;;;;12.08;50.30;100184.64;645858;222;24783;-76
2021/04/09 09:38:46;;;;;;;13.37;5.07;;;;;;;11.96;51.65;100181.48;631890;225;24769;-76
2021/04/09 09:41:44;;;;;;;4.83;3.93;;;;;;;11.32;51.23;100175.34;649724;220;24946;-76
2021/04/09 09:44:21;;;;;;;7.05;4.87;;;;;;;11.55;51.31;100168.69;638737;220;32851;-76
2021/04/09 09:46:52;;;;;;;7.00;3.90;;;;;;;12.40;51.66;100178.28;640519;220;23673;-77
2021/04/09 09:49:20;;;;;;;5.67;4.60;;;;;;;13.20;52.11;100170.78;641980;224;24765;-76
2021/04/09 09:51:48;;;;;;;6.77;4.80;;;;;;;12.38;50.35;100170.26;642014;220;23848;-76
2021/04/09 09:54:22;;;;;;;5.27;4.00;;;;;;;12.52;50.81;100159.70;650266;221;27998;-76
2021/04/09 09:56:50;;;;;;;6.53;4.13;;;;;;;12.68;50.60;100154.06;636498;225;24818;-77
2021/04/09 09:59:19;;;;;;;9.48;4.30;;;;;;;12.23;51.22;100157.00;630929;225;32872;-76
2021/04/09 10:01:50;;;;;;;6.50;4.50;;;;;;;13.17;51.73;100159.81;643611;222;25864;-77
2021/04/09 10:06:52;;;;;;;4.70;4.20;;;;;;;13.51;49.50;100144.82;649796;217;30700;-75
2021/04/09 10:09:25;;;;;;;7.03;4.20;;;;;;;13.28;49.83;100143.36;637831;225;24773;-75
2021/04/09 10:11:53;;;;;;;11.80;4.17;;;;;;;13.57;49.81;100149.37;626735;227;25640;-75
2021/04/09 10:14:20;;;;;;;7.40;4.07;;;;;;;13.46;49.70;100138.44;624457;228;24944;-76
2021/04/09 10:16:48;;;;;;;7.55;4.28;;;;;;;13.74;49.36;100129.23;632727;224;32796;-75
2021/04/09 10:19:16;;;;;;;6.43;3.80;;;;;;;14.02;49.96;100128.82;635885;224;23674;-75
2021/04/09 10:21:44;;;;;;;5.50;3.80;;;;;;;13.41;48.42;100126.38;623242;229;23868;-75
2021/04/09 10:24:12;;;;;;;10.23;4.60;;;;;;;14.17;50.71;100124.50;630742;225;26040;-75
2021/04/09 10:26:40;;;;;;;5.40;3.87;;;;;;;14.33;49.00;100134.08;635997;225;24781;-77
2021/04/09 10:29:18;;;;;;;6.03;3.60;;;;;;;14.42;49.66;100127.83;637355;225;24759;-76
2021/04/09 10:31:46;;;;;;;7.40;3.60;;;;;;;14.02;48.03;100128.33;625314;229;24094;-76
2021/04/09 10:34:14;;;;;;;5.67;4.33;;;;;;;13.07;51.00;100136.47;625138;230;24870;-77
2021/04/09 10:36:45;;;;;;;5.93;3.67;;;;;;;13.72;50.32;100125.16;622686;229;24836;-77
2021/04/09 10:39:12;;;;;;;6.23;3.80;;;;;;;13.72;50.42;100125.98;634727;224;23809;-75
2021/04/09 10:41:41;;;;;;;7.23;3.67;;;;;;;13.73;51.14;100117.64;635987;224;23788;-75
2021/04/09 10:44:11;;;;;;;5.60;3.80;;;;;;;13.64;51.12;100112.42;635974;225;26983;-75
2021/04/09 10:46:37;;;;;;;5.87;3.90;;;;;;;14.12;51.34;100118.98;635999;225;24813;-75
2021/04/09 10:49:05;;;;;;;5.87;3.77;;;;;;;14.15;50.21;100102.45;638282;225;23788;-75
2021/04/09 10:51:33;;;;;;;6.90;3.43;;;;;;;14.05;49.75;100104.45;625340;229;24871;-75
2021/04/09 10:54:01;;;;;;;5.27;3.03;;;;;;;14.06;50.11;100096.92;628393;225;24068;-75
2021/04/09 10:56:29;;;;;;;6.60;3.20;;;;;;;13.91;49.91;100098.63;636345;225;24799;-75
2021/04/09 10:58:56;;;;;;;7.78;4.00;;;;;;;14.61;48.81;100092.06;629385;225;32676;-75
2021/04/09 11:01:25;;;;;;;9.53;2.97;;;;;;;14.83;49.45;100087.33;624995;228;22767;-75
2021/04/09 11:03:54;;;;;;;3.90;2.83;;;;;;;15.12;49.10;100074.00;630448;225;24867;-75
2021/04/09 11:06:22;;;;;;;5.13;2.93;;;;;;;13.89;50.13;100088.83;630916;225;23858;-75
2021/04/09 11:08:57;;;;;;;6.47;3.40;;;;;;;14.21;50.51;100082.13;624479;229;30378;-75
2021/04/09 11:11:29;;;;;;;7.90;3.10;;;;;;;14.75;49.38;100081.33;625308;225;23835;-75
2021/04/09 11:14:01;;;;;;;6.40;3.60;;;;;;;14.94;49.97;100080.06;625334;229;23874;-75
2021/04/09 11:16:29;;;;;;;8.77;3.57;;;;;;;14.66;49.82;100070.63;631584;223;34475;-75
2021/04/09 11:18:58;;;;;;;5.93;3.30;;;;;;;14.85;49.33;100070.13;632178;225;24805;-75
2021/04/09 11:21:36;;;;;;;5.80;3.50;;;;;;;14.44;49.14;100070.92;638775;224;23794;-75
2021/04/09 11:24:04;;;;;;;10.50;3.30;;;;;;;14.57;50.18;100070.35;626752;229;23901;-75
2021/04/09 11:26:34;;;;;;;6.00;3.30;;;;;;;15.01;49.25;100063.44;625701;227;24847;-75
2021/04/09 11:29:02;;;;;;;8.23;3.00;;;;;;;14.67;50.27;100067.02;625351;229;23848;-75
2021/04/09 11:31:30;;;;;;;5.97;3.40;;;;;;;15.29;48.99;100049.26;624894;229;24076;-75
2021/04/09 11:34:07;;;;;;;4.00;2.50;;;;;;;15.11;49.83;100058.77;626136;229;24826;-75
2021/04/09 11:36:41;;;;;;;8.80;2.60;;;;;;;15.32;49.00;100043.65;624487;229;24840;-75
2021/04/09 11:39:11;;;;;;;5.20;2.90;;;;;;;16.09;48.43;100041.13;636307;225;26940;-75
2021/04/09 11:41:39;;;;;;;6.83;3.03;;;;;;;15.62;47.59;100039.27;637712;225;23830;-75